• Join FlightAware (Why Join?)
  • Login
  • US Flag 
09:11AM EST


 

Airport Tracker/Info


-or-


 

Live Flight TrackerFlight Track Log ✈ UPS1121 ✈ 13-Jun-2013 ✈ KBDL - KPHL

Flight Track Log - Related Links

Times and Time Zones

All times are in EDT time to prevent confusion due to time zone crossing. See the UPS1121 flight status page for this flight to view local times or setup timezone preferences in your user account.

Time Position Orientation Groundspeed Altitude Reporting Facility
EDT Latitude Longitude Course Direction KTS MPH feet Rate Location/Type
09:59PM 41.9417 -72.6997 32° Northeast 116 133 1,100  Level Boston Center
10:00PM 41.9750 -72.6719 32° Northeast 90 104 2,900 2,220 Climbing Boston Center
10:01PM 41.9022 -72.6353 159° South 136 157 6,400 3,480 Climbing Boston Center
10:02PM 41.8375 -72.5961 156° South 220 253 9,900 2,820 Climbing Boston Center
10:03PM 41.7522 -72.5347 152° Southeast 299 344 12,100 2,400 Climbing Boston Center
10:04PM 41.6647 -72.5317 179° South 335 386 14,800 2,820 Climbing Boston Center
10:05PM 41.5542 -72.5706 195° South 365 420 17,800 2,460 Climbing Boston Center
10:06PM 41.4644 -72.6008 194° South 370 426 19,800 1,080 Climbing Boston Center
10:07PM 41.3622 -72.6392 196° South 380 437 20,000 60 Climbing Boston Center
10:08PM 41.2478 -72.6831 196° South 380 437 20,000  Level Boston Center
10:09PM 41.1433 -72.7211 195° South 380 437 20,000  Level Boston Center
10:10PM 41.0411 -72.7594 196° South 380 437 20,000  Level Boston Center
10:11PM 40.9222 -72.8219 202° Southwest 380 437 20,000  Level Boston Center
10:12PM 40.8303 -72.8900 209° Southwest 380 437 20,000  Level Boston Center
10:14PM 40.6636 -73.0092 208° Southwest 385 443 20,000  Level New York Center
10:15PM 40.5728 -73.0744 209° Southwest 380 437 20,000  Level New York Center
10:16PM 40.4817 -73.1422 210° Southwest 385 443 20,000  Level New York Center
10:17PM 40.3867 -73.2069 207° Southwest 385 443 20,000  Level New York Center
10:18PM 40.2956 -73.2719 209° Southwest 380 437 20,000  Level New York Center
10:19PM 40.2067 -73.3392 210° Southwest 380 437 20,000  Level New York Center
10:20PM 40.1158 -73.3983 206° Southwest 380 437 20,000  Level New York Center
10:21PM 40.0247 -73.4600 207° Southwest 380 437 20,000  Level New York Center
10:23PM 39.8678 -73.5939 213° Southwest 379 436 20,000  Level Washington Center
10:24PM 39.8047 -73.6981 232° Southwest 370 426 20,000  Level Washington Center
10:25PM 39.7397 -73.7969 229° Southwest 370 426 20,000 -240 Level Washington Center
10:26PM 39.6786 -73.8956 231° Southwest 370 426 19,600 -1,380 Descending Washington Center
10:27PM 39.6236 -73.9858 232° Southwest 348 400 17,300 -2,040 Descending Washington Center
10:28PM 39.5664 -74.0706 229° Southwest 330 380 15,500 -1,680 Descending Washington Center
10:29PM 39.5258 -74.1631 240° Southwest 318 366 14,000 -780 Descending Washington Center
10:30PM 39.5272 -74.2867 271° West 306 352 14,000 -1,200 Level Washington Center
10:32PM 39.5333 -74.5833 272° West 317 365 10,100 -1,440 Descending Philadelphia TRACON
10:33PM 39.5333 -74.6833 270° West 255 293 9,200 -600 Descending Philadelphia TRACON
10:34PM 39.5333 -74.7667 270° West 259 298 9,000 -120 Descending Philadelphia TRACON
10:35PM 39.5500 -74.8667 282° West 272 313 9,000 -180 Level Philadelphia TRACON
10:36PM 39.6167 -74.9000 339° North 286 329 8,700 -840 Descending Philadelphia TRACON
10:37PM 39.7000 -74.9167 351° North 271 312 7,400 -1,260 Descending Philadelphia TRACON
10:38PM 39.7667 -74.9167 360° North 261 300 6,200 -780 Descending Philadelphia TRACON
10:39PM 39.8333 -74.9333 349° North 210 242 5,900 -900 Descending Philadelphia TRACON
10:40PM 39.8833 -74.9333 360° North 200 230 4,400 -1,440 Descending Philadelphia TRACON
10:41PM 39.9167 -74.9833 311° West 170 196 3,100 -840 Descending Philadelphia TRACON
10:42PM 39.9167 -75.0500 270° West 170 196 2,800 -660 Descending Philadelphia TRACON
10:44PM 39.9000 -75.1167 252° West 160 184 1,800 -900 Descending Philadelphia TRACON
10:44PM 39.8833 -75.1500 237° Southwest 137 158 1,200 -780 Descending Philadelphia TRACON
10:45PM 39.8833 -75.2000 270° West 127 146 500 -720 Descending Philadelphia TRACON
10:47PM 39.8667 -75.2333 270° West  Level FlightAware Approximate
10:54PM 39.8722 -75.2409 270° West  Level Estimated